createdAt,value
2022-10-20T00:01:40.550Z,4.83
2022-10-20T00:08:00.802Z,3.90
2022-10-20T00:11:04.097Z,4.37
2022-10-20T00:14:07.535Z,4.80
2022-10-20T00:17:12.025Z,4.30
2022-10-20T00:23:23.705Z,4.20
2022-10-20T00:26:27.942Z,4.03
2022-10-20T00:29:31.084Z,4.27
2022-10-20T00:32:35.832Z,4.10
2022-10-20T00:35:40.101Z,4.20
2022-10-20T00:38:43.292Z,4.50
2022-10-20T00:41:46.390Z,4.37
2022-10-20T00:44:53.569Z,4.70
2022-10-20T00:48:02.179Z,3.93
2022-10-20T00:51:05.598Z,4.33
2022-10-20T00:54:11.877Z,3.87
2022-10-20T00:57:15.169Z,3.63
2022-10-20T01:00:18.913Z,3.40
2022-10-20T01:03:26.979Z,4.07
2022-10-20T01:06:30.263Z,2.97
2022-10-20T01:09:34.829Z,3.50
2022-10-20T01:12:45.270Z,3.70
2022-10-20T01:15:58.582Z,3.37
2022-10-20T01:19:17.526Z,3.70
2022-10-20T01:22:34.322Z,3.80
2022-10-20T01:25:52.366Z,3.67
2022-10-20T01:29:00.785Z,3.27
2022-10-20T01:32:11.349Z,3.67
2022-10-20T01:35:22.535Z,3.60
2022-10-20T01:38:31.875Z,3.20
2022-10-20T01:41:39.604Z,3.50
2022-10-20T01:44:45.453Z,3.47
2022-10-20T01:47:49.876Z,3.80
2022-10-20T01:50:53.171Z,3.03
2022-10-20T01:53:56.277Z,3.13
2022-10-20T01:57:13.679Z,3.57
2022-10-20T02:00:19.394Z,3.70
2022-10-20T02:03:41.945Z,3.97
2022-10-20T02:06:52.983Z,3.10
2022-10-20T02:10:00.743Z,4.57
2022-10-20T02:13:08.458Z,3.70
2022-10-20T02:16:17.866Z,3.80
2022-10-20T02:19:24.433Z,4.10
2022-10-20T02:22:28.326Z,3.93
2022-10-20T02:25:33.569Z,3.67
2022-10-20T02:28:39.964Z,3.87
2022-10-20T02:31:45.585Z,3.60
2022-10-20T02:34:49.369Z,3.63
2022-10-20T02:37:52.495Z,4.10
2022-10-20T02:40:55.576Z,3.63
2022-10-20T02:43:58.804Z,3.70
2022-10-20T02:47:03.245Z,4.17
2022-10-20T02:50:07.340Z,3.33
2022-10-20T02:53:10.433Z,4.30
2022-10-20T02:56:13.684Z,4.00
2022-10-20T02:59:17.926Z,3.83
2022-10-20T03:02:22.396Z,4.50
2022-10-20T03:05:25.513Z,4.70
2022-10-20T03:08:28.628Z,4.10
2022-10-20T03:11:31.766Z,4.50
2022-10-20T03:14:34.861Z,4.63
2022-10-20T03:17:39.502Z,4.30
2022-10-20T03:20:42.777Z,5.00
2022-10-20T03:23:45.948Z,4.63
2022-10-20T03:26:49.022Z,5.17
2022-10-20T03:29:52.118Z,4.70
2022-10-20T03:32:57.344Z,3.87
2022-10-20T03:36:00.451Z,5.43
2022-10-20T03:39:03.542Z,4.80
2022-10-20T03:42:06.596Z,4.33
2022-10-20T03:45:12.656Z,4.90
2022-10-20T03:48:19.441Z,3.83
2022-10-20T03:51:22.807Z,4.47
2022-10-20T03:54:26.117Z,4.10
2022-10-20T03:57:29.204Z,4.43
2022-10-20T04:00:32.274Z,4.67
2022-10-20T04:03:36.859Z,3.83
2022-10-20T04:06:40.071Z,5.47
2022-10-20T04:09:43.202Z,3.70
2022-10-20T04:12:46.347Z,4.47
2022-10-20T04:15:49.444Z,4.20
2022-10-20T04:18:54.757Z,3.77
2022-10-20T04:21:57.857Z,4.80
2022-10-20T04:25:01.014Z,4.60
2022-10-20T04:28:04.096Z,3.97
2022-10-20T04:31:07.354Z,3.93
2022-10-20T04:34:11.780Z,4.13
2022-10-20T04:37:14.882Z,4.67
2022-10-20T04:40:18.031Z,4.60
2022-10-20T04:43:21.111Z,4.93
2022-10-20T04:46:24.260Z,5.00
2022-10-20T04:49:28.948Z,4.17
2022-10-20T04:52:32.047Z,4.00
2022-10-20T04:55:35.168Z,4.40
2022-10-20T04:58:38.291Z,4.70
2022-10-20T05:01:41.513Z,4.33
2022-10-20T05:04:46.076Z,3.60
2022-10-20T05:07:49.139Z,3.90
2022-10-20T05:10:52.251Z,4.47
2022-10-20T05:13:55.596Z,5.10
2022-10-20T05:16:58.740Z,4.30
2022-10-20T05:20:03.211Z,4.17
2022-10-20T05:23:06.296Z,4.60
2022-10-20T05:26:11.751Z,3.70
2022-10-20T05:29:14.872Z,3.93
2022-10-20T05:32:17.989Z,3.70
2022-10-20T05:35:22.483Z,3.80
2022-10-20T05:38:25.614Z,4.37
2022-10-20T05:41:33.364Z,3.93
2022-10-20T05:44:39.501Z,4.30
2022-10-20T05:47:43.041Z,3.47
2022-10-20T05:50:47.825Z,3.53
2022-10-20T05:53:50.930Z,4.03
2022-10-20T05:56:54.141Z,4.40
2022-10-20T05:59:57.286Z,3.87
2022-10-20T06:03:00.513Z,4.47
2022-10-20T06:06:05.583Z,3.87
2022-10-20T06:09:10.304Z,4.20
2022-10-20T06:12:13.448Z,4.67
2022-10-20T06:15:16.683Z,4.50
2022-10-20T06:18:19.769Z,3.70
2022-10-20T06:21:26.242Z,4.57
2022-10-20T06:24:29.630Z,4.00
2022-10-20T06:27:32.698Z,4.83
2022-10-20T06:30:35.826Z,4.00
2022-10-20T06:33:38.947Z,3.60
2022-10-20T06:36:44.118Z,3.50
2022-10-20T06:39:47.997Z,3.57
2022-10-20T06:42:51.079Z,3.60
2022-10-20T06:45:58.109Z,4.07
2022-10-20T06:49:01.910Z,3.53
2022-10-20T06:52:06.506Z,3.83
2022-10-20T06:55:10.504Z,3.60
2022-10-20T06:58:14.091Z,3.63
2022-10-20T07:01:19.114Z,3.40
2022-10-20T07:04:22.303Z,3.63
2022-10-20T07:07:26.806Z,3.57
2022-10-20T07:10:29.973Z,4.53
2022-10-20T07:13:34.275Z,4.00
2022-10-20T07:16:37.357Z,3.57
2022-10-20T07:19:40.473Z,3.83
2022-10-20T07:22:45.249Z,3.87
2022-10-20T07:25:48.347Z,3.63
2022-10-20T07:28:55.783Z,3.20
2022-10-20T07:32:01.332Z,2.67
2022-10-20T07:35:05.700Z,3.20
2022-10-20T07:38:10.160Z,3.30
2022-10-20T07:41:13.728Z,8.07
2022-10-20T07:44:17.451Z,3.27
2022-10-20T07:47:20.584Z,4.37
2022-10-20T07:50:24.825Z,2.93
2022-10-20T07:53:29.307Z,2.77
2022-10-20T07:56:33.906Z,2.53
2022-10-20T07:59:37.026Z,1.87
2022-10-20T08:02:40.961Z,2.50
2022-10-20T08:05:44.043Z,2.40
2022-10-20T08:08:48.560Z,2.90
2022-10-20T08:11:55.276Z,3.23
2022-10-20T08:14:59.087Z,2.70
2022-10-20T08:18:02.445Z,2.47
2022-10-20T08:21:10.982Z,2.87
2022-10-20T08:24:15.443Z,2.70
2022-10-20T08:27:18.705Z,3.33
2022-10-20T08:30:24.341Z,2.60
2022-10-20T08:33:27.751Z,3.70
2022-10-20T08:36:31.052Z,2.50
2022-10-20T08:39:35.561Z,2.67
2022-10-20T08:42:44.393Z,2.60
2022-10-20T08:45:47.569Z,3.40
2022-10-20T08:48:51.151Z,2.77
2022-10-20T08:51:54.665Z,2.70
2022-10-20T08:54:59.443Z,3.03
2022-10-20T08:58:04.670Z,2.80
2022-10-20T09:01:19.616Z,3.00
2022-10-20T09:04:25.732Z,2.80
2022-10-20T09:07:33.142Z,2.60
2022-10-20T09:10:40.992Z,2.63
2022-10-20T09:13:44.771Z,2.40
2022-10-20T09:16:59.719Z,3.20
2022-10-20T09:20:05.083Z,2.40
2022-10-20T09:23:35.538Z,2.20
2022-10-20T09:30:16.541Z,2.50
2022-10-20T09:33:26.202Z,2.90
2022-10-20T09:36:32.524Z,3.30
2022-10-20T09:39:44.198Z,2.70
2022-10-20T09:42:53.614Z,2.57
2022-10-20T09:46:00.055Z,2.60
2022-10-20T09:49:03.464Z,3.57
2022-10-20T09:52:18.813Z,2.97
2022-10-20T09:55:28.177Z,3.27
2022-10-20T09:58:34.820Z,2.40
2022-10-20T10:01:54.269Z,3.17
2022-10-20T10:05:15.070Z,2.57
2022-10-20T10:08:19.143Z,2.97
2022-10-20T10:11:25.536Z,3.23
2022-10-20T10:14:30.985Z,3.20
2022-10-20T10:17:36.433Z,3.30
2022-10-20T10:20:41.550Z,3.60
2022-10-20T10:23:55.743Z,3.43
2022-10-20T10:26:59.195Z,2.90
2022-10-20T10:33:30.896Z,2.43
2022-10-20T10:36:36.245Z,2.90
2022-10-20T10:39:39.549Z,3.13
2022-10-20T10:42:59.531Z,3.10
2022-10-20T10:46:08.360Z,3.90
2022-10-20T10:49:44.776Z,2.90
2022-10-20T10:53:00.025Z,3.13
2022-10-20T10:56:12.402Z,3.23
2022-10-20T10:59:22.462Z,4.03
2022-10-20T11:02:38.847Z,3.50
2022-10-20T11:06:04.312Z,3.43
2022-10-20T11:09:20.623Z,3.20
2022-10-20T11:12:41.434Z,3.47
2022-10-20T11:16:13.109Z,3.53
2022-10-20T11:19:34.434Z,4.73
2022-10-20T11:22:51.218Z,5.93
2022-10-20T11:26:01.818Z,4.50
2022-10-20T11:29:11.068Z,5.30
2022-10-20T11:32:25.666Z,5.83
2022-10-20T11:35:39.692Z,4.40
2022-10-20T11:38:50.526Z,4.70
2022-10-20T11:41:59.634Z,4.47
2022-10-20T11:45:06.309Z,4.90
2022-10-20T11:48:17.772Z,4.27
2022-10-20T11:51:42.815Z,4.43
2022-10-20T11:55:04.904Z,4.90
2022-10-20T11:58:33.945Z,5.80
2022-10-20T12:01:40.425Z,5.00
2022-10-20T12:05:08.100Z,4.60
2022-10-20T12:08:36.316Z,3.97
2022-10-20T12:11:49.542Z,4.00
2022-10-20T12:14:57.840Z,3.43
2022-10-20T12:18:06.572Z,4.10
2022-10-20T12:21:12.351Z,3.83
2022-10-20T12:24:31.606Z,3.63
2022-10-20T12:27:36.211Z,3.60
2022-10-20T12:30:44.799Z,4.00
2022-10-20T12:34:01.879Z,3.57
2022-10-20T12:37:09.202Z,4.10
2022-10-20T12:40:25.888Z,5.20
2022-10-20T12:43:35.100Z,4.60
2022-10-20T12:46:43.855Z,4.57
2022-10-20T12:49:54.986Z,4.70
2022-10-20T12:53:10.375Z,4.20
2022-10-20T12:56:14.522Z,4.70
2022-10-20T12:59:38.173Z,4.53
2022-10-20T13:03:02.284Z,4.13
2022-10-20T13:06:45.245Z,4.30
2022-10-20T13:10:00.365Z,5.40
2022-10-20T13:13:37.860Z,4.70
2022-10-20T13:16:45.734Z,4.07
2022-10-20T13:20:00.413Z,4.90
2022-10-20T13:23:06.906Z,4.87
2022-10-20T13:26:18.991Z,4.43
2022-10-20T13:29:26.029Z,4.57
2022-10-20T13:32:37.973Z,4.77
2022-10-20T13:35:54.589Z,6.10
2022-10-20T13:39:04.949Z,5.00
2022-10-20T13:42:19.859Z,5.57
2022-10-20T13:45:31.684Z,5.43
2022-10-20T13:48:50.865Z,5.03
2022-10-20T13:51:59.385Z,4.97
2022-10-20T13:55:06.229Z,5.40
2022-10-20T13:58:18.886Z,5.60
2022-10-20T14:01:24.965Z,5.90
2022-10-20T14:04:30.284Z,6.20
2022-10-20T14:07:41.179Z,5.07
2022-10-20T14:10:50.920Z,5.10
2022-10-20T14:13:54.028Z,5.63
2022-10-20T14:17:00.638Z,5.40
2022-10-20T14:20:18.677Z,5.07
2022-10-20T14:23:23.393Z,5.40
2022-10-20T14:26:28.246Z,5.80
2022-10-20T14:29:34.042Z,5.20
2022-10-20T14:32:41.417Z,5.70
2022-10-20T14:35:47.155Z,5.10
2022-10-20T14:38:52.225Z,4.93
2022-10-20T14:41:59.756Z,5.80
2022-10-20T14:45:04.287Z,5.33
2022-10-20T14:48:14.967Z,3.77
2022-10-20T14:51:31.004Z,4.70
2022-10-20T14:54:37.908Z,4.77
2022-10-20T14:57:46.015Z,4.73
2022-10-20T15:00:49.125Z,4.40
2022-10-20T15:07:17.079Z,7.67
2022-10-20T15:10:23.646Z,9.63
2022-10-20T15:13:31.839Z,5.93
2022-10-20T15:16:42.854Z,4.80
2022-10-20T15:19:46.279Z,6.50
2022-10-20T15:22:52.236Z,5.27
2022-10-20T15:26:03.730Z,5.27
2022-10-20T15:29:08.897Z,4.70
2022-10-20T15:32:12.135Z,4.37
2022-10-20T15:35:18.591Z,5.37
2022-10-20T15:38:22.049Z,5.10
2022-10-20T15:41:28.477Z,5.20
2022-10-20T15:44:33.114Z,5.40
2022-10-20T15:47:36.262Z,5.23
2022-10-20T15:50:40.933Z,5.30
2022-10-20T15:53:46.085Z,5.93
2022-10-20T15:56:49.552Z,4.73
2022-10-20T15:59:54.918Z,6.87
2022-10-20T16:02:59.614Z,8.03
2022-10-20T16:06:03.080Z,7.50
2022-10-20T16:09:07.301Z,7.00
2022-10-20T16:12:12.255Z,6.30
2022-10-20T16:15:17.406Z,6.57
2022-10-20T16:18:20.627Z,6.77
2022-10-20T16:21:24.095Z,5.67
2022-10-20T16:24:27.481Z,7.70
2022-10-20T16:27:30.837Z,6.30
2022-10-20T16:30:35.825Z,13.10
2022-10-20T16:33:39.603Z,8.03
2022-10-20T16:36:42.733Z,7.03
2022-10-20T16:39:48.537Z,6.90
2022-10-20T16:42:51.981Z,7.10
2022-10-20T16:45:57.300Z,6.00
2022-10-20T16:49:01.221Z,6.73
2022-10-20T16:52:05.134Z,7.87
2022-10-20T16:55:09.416Z,6.63
2022-10-20T16:58:13.217Z,6.37
2022-10-20T17:01:19.986Z,7.00
2022-10-20T17:04:24.190Z,7.23
2022-10-20T17:07:30.487Z,8.23
2022-10-20T17:10:35.401Z,7.70
2022-10-20T17:13:40.711Z,7.80
2022-10-20T17:16:47.932Z,7.00
2022-10-20T17:19:52.333Z,8.00
2022-10-20T17:22:58.256Z,7.50
2022-10-20T17:26:04.104Z,7.10
2022-10-20T17:29:09.730Z,7.43
2022-10-20T17:32:18.173Z,6.70
2022-10-20T17:35:23.164Z,8.50
2022-10-20T17:38:30.106Z,8.80
2022-10-20T17:41:34.805Z,8.47
2022-10-20T17:44:40.565Z,7.93
2022-10-20T17:47:47.370Z,8.47
2022-10-20T17:51:02.913Z,8.37
2022-10-20T17:54:08.210Z,7.90
2022-10-20T17:57:13.175Z,8.27
2022-10-20T18:00:31.772Z,8.83
2022-10-20T18:03:55.704Z,9.00
2022-10-20T18:07:02.938Z,10.13
2022-10-20T18:10:08.795Z,9.27
2022-10-20T18:13:14.748Z,8.50
2022-10-20T18:16:23.499Z,10.00
2022-10-20T18:19:29.822Z,10.10
2022-10-20T18:22:35.147Z,8.57
2022-10-20T18:25:39.376Z,9.27
2022-10-20T18:28:48.291Z,9.00
2022-10-20T18:31:52.969Z,7.43
2022-10-20T18:35:00.223Z,8.93
2022-10-20T18:38:05.135Z,8.77
2022-10-20T18:41:11.156Z,8.50
2022-10-20T18:44:16.889Z,8.53
2022-10-20T18:47:21.744Z,8.93
2022-10-20T18:50:30.666Z,9.50
2022-10-20T18:53:36.886Z,7.70
2022-10-20T18:56:41.381Z,9.03
2022-10-20T18:59:47.795Z,9.20
2022-10-20T19:02:55.846Z,8.97
2022-10-20T19:06:06.143Z,8.70
2022-10-20T19:09:14.925Z,9.23
2022-10-20T19:12:20.411Z,10.27
2022-10-20T19:15:25.219Z,12.13
2022-10-20T19:18:32.304Z,11.40
2022-10-20T19:21:39.148Z,10.30
2022-10-20T19:24:43.451Z,8.37
2022-10-20T19:27:47.848Z,8.70
2022-10-20T19:30:52.486Z,8.03
2022-10-20T19:34:00.275Z,9.43
2022-10-20T19:37:06.990Z,10.03
2022-10-20T19:40:12.648Z,9.00
2022-10-20T19:43:17.243Z,9.10
2022-10-20T19:46:23.140Z,9.97
2022-10-20T19:49:28.659Z,8.97
2022-10-20T19:52:35.650Z,9.53
2022-10-20T19:55:40.556Z,8.20
2022-10-20T19:58:46.622Z,8.20
2022-10-20T20:01:53.081Z,8.67
2022-10-20T20:04:57.532Z,8.33
2022-10-20T20:08:03.053Z,7.90
2022-10-20T20:11:08.111Z,7.73
2022-10-20T20:14:14.710Z,8.37
2022-10-20T20:17:22.766Z,8.40
2022-10-20T20:20:26.954Z,10.23
2022-10-20T20:23:47.722Z,9.90
2022-10-20T20:26:58.442Z,7.77
2022-10-20T20:30:03.580Z,9.00
2022-10-20T20:33:07.187Z,10.23
2022-10-20T20:36:11.793Z,11.77
2022-10-20T20:39:16.614Z,12.10
2022-10-20T20:42:20.088Z,10.90
2022-10-20T20:45:23.454Z,12.80
2022-10-20T20:48:26.620Z,12.40
2022-10-20T20:51:33.533Z,12.47
2022-10-20T20:54:38.250Z,11.77
2022-10-20T20:57:41.375Z,11.70
2022-10-20T21:00:44.511Z,11.93
2022-10-20T21:03:48.309Z,13.20
2022-10-20T21:07:08.457Z,10.77
2022-10-20T21:10:12.950Z,11.07
2022-10-20T21:13:16.071Z,11.80
2022-10-20T21:16:21.234Z,11.43
2022-10-20T21:19:24.552Z,9.87
2022-10-20T21:22:28.113Z,10.20
2022-10-20T21:25:32.717Z,9.90
2022-10-20T21:28:36.566Z,9.27
2022-10-20T21:31:41.902Z,9.30
2022-10-20T21:34:45.166Z,9.43
2022-10-20T21:37:48.290Z,10.30
2022-10-20T21:40:52.846Z,10.70
2022-10-20T21:43:58.260Z,9.23
2022-10-20T21:47:01.399Z,9.60
2022-10-20T21:50:04.900Z,11.30
2022-10-20T21:53:08.011Z,10.23
2022-10-20T21:56:12.578Z,10.30
2022-10-20T21:59:18.975Z,9.93
2022-10-20T22:02:22.113Z,9.57
2022-10-20T22:05:25.411Z,9.60
2022-10-20T22:08:28.579Z,10.90
2022-10-20T22:11:35.483Z,10.20
2022-10-20T22:14:38.948Z,11.37
2022-10-20T22:17:42.499Z,10.20
2022-10-20T22:20:45.599Z,10.37
2022-10-20T22:23:48.734Z,11.90
2022-10-20T22:26:54.303Z,9.40
2022-10-20T22:29:57.654Z,9.90
2022-10-20T22:33:00.929Z,10.00
2022-10-20T22:36:04.536Z,10.43
2022-10-20T22:39:08.115Z,9.23
2022-10-20T22:42:12.975Z,9.27
2022-10-20T22:45:16.249Z,10.67
2022-10-20T22:48:19.363Z,10.43
2022-10-20T22:51:22.627Z,10.00
2022-10-20T22:54:25.765Z,10.40
2022-10-20T22:57:30.263Z,10.20
2022-10-20T23:00:33.458Z,9.73
2022-10-20T23:03:36.550Z,10.90
2022-10-20T23:06:41.208Z,11.07
2022-10-20T23:09:44.357Z,10.60
2022-10-20T23:12:48.833Z,11.23
2022-10-20T23:15:52.977Z,10.77
2022-10-20T23:18:56.111Z,10.77
2022-10-20T23:21:59.178Z,11.30
2022-10-20T23:25:02.680Z,11.37
2022-10-20T23:28:07.312Z,11.33
2022-10-20T23:31:12.066Z,10.77
2022-10-20T23:34:15.247Z,12.93
2022-10-20T23:37:19.813Z,11.90
2022-10-20T23:40:22.935Z,11.87
2022-10-20T23:43:27.657Z,12.47
2022-10-20T23:46:32.363Z,11.90
2022-10-20T23:49:35.460Z,10.97
2022-10-20T23:55:46.556Z,11.50
2022-10-20T23:58:51.053Z,12.50
